createdAt,value
2024-02-19T00:00:17.546Z,101090.78
2024-02-19T00:02:45.934Z,101074.59
2024-02-19T00:05:14.074Z,101080.81
2024-02-19T00:07:42.410Z,101081.63
2024-02-19T00:10:10.855Z,101081.63
2024-02-19T00:12:39.122Z,101069.19
2024-02-19T00:15:08.191Z,101081.63
2024-02-19T00:17:37.471Z,101073.53
2024-02-19T00:23:37.054Z,101074.59
2024-02-19T00:26:04.951Z,101077.47
2024-02-19T00:28:32.993Z,101076.41
2024-02-19T00:31:00.825Z,101064.81
2024-02-19T00:33:30.169Z,101064.81
2024-02-19T00:35:58.087Z,101067.50
2024-02-19T00:38:26.064Z,101066.66
2024-02-19T00:40:53.861Z,101055.03
2024-02-19T00:43:23.412Z,101058.78
2024-02-19T00:45:52.917Z,101055.03
2024-02-19T00:48:21.140Z,101049.66
2024-02-19T00:50:50.408Z,101054.41
2024-02-19T00:53:18.217Z,101050.06
2024-02-19T00:55:46.083Z,101054.41
2024-02-19T00:58:13.948Z,101044.66
2024-02-19T01:00:41.870Z,101043.59
2024-02-19T01:03:09.773Z,101043.59
2024-02-19T01:05:37.649Z,101038.22
2024-02-19T01:08:07.213Z,101030.94
2024-02-19T01:10:35.182Z,101034.69
2024-02-19T01:13:03.067Z,101024.72
2024-02-19T01:15:30.902Z,101019.31
2024-02-19T01:17:59.380Z,101019.31
2024-02-19T01:20:27.320Z,101019.31
2024-02-19T01:22:55.147Z,101015.63
2024-02-19T01:25:24.388Z,101017.66
2024-02-19T01:27:52.379Z,101017.66
2024-02-19T01:30:20.216Z,101006.88
2024-02-19T01:32:47.991Z,101007.72
2024-02-19T01:35:34.613Z,100996.91
2024-02-19T01:38:02.747Z,100999.78
2024-02-19T01:40:32.023Z,101001.50
2024-02-19T01:43:03.786Z,100986.31
2024-02-19T01:45:31.906Z,100992.75
2024-02-19T01:48:00.223Z,100991.69
2024-02-19T01:50:28.467Z,100982.78
2024-02-19T01:52:57.291Z,100985.69
2024-02-19T01:55:25.154Z,100987.34
2024-02-19T01:57:54.461Z,100982.13
2024-02-19T02:00:22.418Z,100978.63
2024-02-19T02:02:50.276Z,100974.03
2024-02-19T02:05:18.148Z,100972.38
2024-02-19T02:07:46.014Z,100979.44
2024-02-19T02:10:13.978Z,100980.31
2024-02-19T02:12:41.873Z,100970.50
2024-02-19T02:15:11.539Z,100972.22
2024-02-19T02:17:39.376Z,100959.53
2024-02-19T02:20:25.507Z,100964.09
2024-02-19T02:22:53.340Z,100964.09
2024-02-19T02:25:22.799Z,100962.44
2024-02-19T02:27:52.124Z,100967.81
2024-02-19T02:30:19.913Z,100965.13
2024-02-19T02:32:49.470Z,100967.00
2024-02-19T02:38:39.281Z,100961.59
2024-02-19T02:41:07.083Z,100958.06
2024-02-19T02:43:36.310Z,100960.78
2024-02-19T02:46:04.414Z,100954.53
2024-02-19T02:48:32.348Z,100959.09
2024-02-19T02:51:02.164Z,100961.78
2024-02-19T02:53:29.962Z,100963.66
2024-02-19T02:58:25.288Z,100954.72
2024-02-19T03:00:54.613Z,100963.00
2024-02-19T03:03:22.567Z,100963.00
2024-02-19T03:05:50.482Z,100955.78
2024-02-19T03:08:18.277Z,100960.31
2024-02-19T03:10:46.266Z,100962.19
2024-02-19T03:13:14.188Z,100964.88
2024-02-19T03:15:42.198Z,100965.69
2024-02-19T03:18:13.088Z,100965.69
2024-02-19T03:20:40.992Z,100970.91
2024-02-19T03:23:08.823Z,100971.97
2024-02-19T03:25:36.754Z,100966.56
2024-02-19T03:28:04.698Z,100977.34
2024-02-19T03:30:33.270Z,100966.56
2024-02-19T03:33:02.105Z,100971.97
2024-02-19T03:35:31.378Z,100971.09
2024-02-19T03:38:01.794Z,100965.91
2024-02-19T03:40:29.644Z,100964.06
2024-02-19T03:42:57.646Z,100961.53
2024-02-19T03:45:28.836Z,100961.53
2024-02-19T03:47:56.867Z,100961.53
2024-02-19T03:50:24.816Z,100952.63
2024-02-19T03:52:54.145Z,100943.69
2024-02-19T03:55:21.989Z,100954.47
2024-02-19T03:57:49.900Z,100943.69
2024-02-19T04:00:17.902Z,100943.69
2024-02-19T04:02:45.711Z,100937.47
2024-02-19T04:05:25.731Z,100936.66
2024-02-19T04:07:54.927Z,100933.94
2024-02-19T04:10:22.766Z,100936.66
2024-02-19T04:12:50.693Z,100929.56
2024-02-19T04:15:18.555Z,100933.31
2024-02-19T04:17:48.367Z,100928.75
2024-02-19T04:20:25.389Z,100923.34
2024-02-19T04:22:54.622Z,100922.50
2024-02-19T04:25:22.509Z,100927.91
2024-02-19T04:27:50.337Z,100923.34
2024-02-19T04:30:18.238Z,100923.34
2024-02-19T04:32:46.208Z,100927.91
2024-02-19T04:35:14.995Z,100922.50
2024-02-19T04:37:42.871Z,100922.50
2024-02-19T04:40:14.257Z,100918.16
2024-02-19T04:42:42.174Z,100920.88
2024-02-19T04:45:10.477Z,100928.94
2024-02-19T04:47:38.359Z,100921.88
2024-02-19T04:50:06.936Z,100923.75
2024-02-19T04:52:34.860Z,100922.91
2024-02-19T04:55:02.749Z,100928.09
2024-02-19T04:57:32.036Z,100919.19
2024-02-19T04:59:59.874Z,100923.75
2024-02-19T05:02:27.630Z,100921.22
2024-02-19T05:04:55.526Z,100923.94
2024-02-19T05:07:23.486Z,100915.00
2024-02-19T05:09:51.786Z,100922.09
2024-02-19T05:12:19.676Z,100918.53
2024-02-19T05:14:48.898Z,100910.44
2024-02-19T05:17:16.715Z,100915.84
2024-02-19T05:19:44.596Z,100919.56
2024-02-19T05:22:12.598Z,100917.91
2024-02-19T05:24:40.484Z,100918.75
2024-02-19T05:27:08.284Z,100924.13
2024-02-19T05:29:36.108Z,100924.31
2024-02-19T05:32:05.669Z,100917.91
2024-02-19T05:34:33.509Z,100915.22
2024-02-19T05:37:01.437Z,100919.56
2024-02-19T05:39:29.252Z,100918.75
2024-02-19T05:41:57.106Z,100917.72
2024-02-19T05:44:25.043Z,100919.75
2024-02-19T05:46:52.888Z,100921.22
2024-02-19T05:49:22.190Z,100919.56
2024-02-19T05:51:50.121Z,100921.84
2024-02-19T05:54:17.950Z,100917.91
2024-02-19T05:56:45.716Z,100921.44
2024-02-19T05:59:13.596Z,100924.13
2024-02-19T06:01:41.550Z,100912.72
2024-02-19T06:04:09.838Z,100914.38
2024-02-19T06:06:40.581Z,100912.53
2024-02-19T06:09:08.489Z,100910.84
2024-02-19T06:11:36.459Z,100911.88
2024-02-19T06:14:04.301Z,100909.19
2024-02-19T06:16:32.144Z,100914.56
2024-02-19T06:19:03.111Z,100916.22
2024-02-19T06:21:30.973Z,100915.22
2024-02-19T06:24:00.196Z,100917.91
2024-02-19T06:26:28.212Z,100914.19
2024-02-19T06:28:55.986Z,100915.22
2024-02-19T06:31:28.734Z,100919.38
2024-02-19T06:33:56.900Z,100914.81
2024-02-19T06:37:05.044Z,100913.78
2024-02-19T06:39:37.173Z,100908.38
2024-02-19T06:42:08.088Z,100917.31
2024-02-19T06:44:35.859Z,100908.19
2024-02-19T06:47:03.633Z,100906.53
2024-02-19T06:49:31.571Z,100908.19
2024-02-19T06:51:59.948Z,100907.38
2024-02-19T06:54:31.248Z,100913.38
2024-02-19T06:57:01.562Z,100905.28
2024-02-19T06:59:31.359Z,100905.28
2024-02-19T07:01:59.357Z,100897.19
2024-02-19T07:04:27.265Z,100899.91
2024-02-19T07:06:56.277Z,100895.34
2024-02-19T07:09:24.144Z,100892.44
2024-02-19T07:11:51.954Z,100902.19
2024-02-19T07:14:21.125Z,100894.75
2024-02-19T07:16:49.304Z,100895.56
2024-02-19T07:19:17.191Z,100894.34
2024-02-19T07:21:45.574Z,100896.03
2024-02-19T07:24:13.446Z,100883.19
2024-02-19T07:26:41.320Z,100884.00
2024-02-19T07:29:09.155Z,100881.09
2024-02-19T07:31:38.492Z,100870.94
2024-02-19T07:34:06.454Z,100870.75
2024-02-19T07:36:34.353Z,100873.22
2024-02-19T07:39:02.185Z,100880.31
2024-02-19T07:41:30.007Z,100877.41
2024-02-19T07:43:57.801Z,100879.09
2024-02-19T07:46:25.700Z,100880.56
2024-02-19T07:48:55.309Z,100881.16
2024-02-19T07:51:23.278Z,100878.28
2024-02-19T07:53:51.168Z,100874.53
2024-02-19T07:56:19.041Z,100884.09
2024-02-19T07:58:46.903Z,100885.78
2024-02-19T08:01:15.011Z,100885.78
2024-02-19T08:03:42.956Z,100889.72
2024-02-19T08:06:12.242Z,100879.56
2024-02-19T08:08:40.124Z,100874.81
2024-02-19T08:11:07.953Z,100877.28
2024-02-19T08:13:36.632Z,100866.31
2024-02-19T08:16:05.807Z,100870.47
2024-02-19T08:18:33.814Z,100883.75
2024-02-19T08:21:01.751Z,100871.72
2024-02-19T08:23:30.997Z,100871.34
2024-02-19T08:25:59.210Z,100878.38
2024-02-19T08:28:27.296Z,100870.94
2024-02-19T08:30:55.414Z,100879.66
2024-02-19T08:33:23.324Z,100875.72
2024-02-19T08:35:52.005Z,100874.50
2024-02-19T08:38:20.088Z,100866.19
2024-02-19T08:40:49.393Z,100868.50
2024-02-19T08:43:17.209Z,100862.91
2024-02-19T08:45:45.303Z,100866.00
2024-02-19T08:48:13.253Z,100865.00
2024-02-19T08:50:59.368Z,100861.06
2024-02-19T08:53:29.170Z,100857.31
2024-02-19T08:55:58.381Z,100861.47
2024-02-19T08:58:26.721Z,100864.81
2024-02-19T09:00:54.923Z,100866.47
2024-02-19T09:03:22.813Z,100859.00
2024-02-19T09:06:06.477Z,100865.03
2024-02-19T09:08:34.326Z,100856.94
2024-02-19T09:11:04.178Z,100861.09
2024-02-19T09:13:35.684Z,100866.28
2024-02-19T09:16:03.679Z,100865.25
2024-02-19T09:18:31.743Z,100863.16
2024-02-19T09:20:59.603Z,100857.56
2024-02-19T09:23:29.318Z,100862.75
2024-02-19T09:25:57.995Z,100863.38
2024-02-19T09:28:27.339Z,100857.78
2024-02-19T09:30:55.215Z,100856.53
2024-02-19T09:33:23.125Z,100857.16
2024-02-19T09:35:51.074Z,100847.19
2024-02-19T09:38:17.913Z,100842.41
2024-02-19T09:40:50.579Z,100849.66
2024-02-19T09:43:18.868Z,100852.16
2024-02-19T09:45:48.642Z,100844.88
2024-02-19T09:48:16.567Z,100854.06
2024-02-19T09:50:48.449Z,100844.88
2024-02-19T09:53:19.870Z,100844.88
2024-02-19T09:55:47.736Z,100842.41
2024-02-19T09:58:15.882Z,100844.03
2024-02-19T10:00:43.827Z,100839.06
2024-02-19T10:03:13.111Z,100843.44
2024-02-19T10:05:41.030Z,100834.09
2024-02-19T10:08:14.021Z,100834.09
2024-02-19T10:10:46.225Z,100839.69
2024-02-19T10:13:15.027Z,100841.97
2024-02-19T10:15:43.063Z,100842.19
2024-02-19T10:18:16.035Z,100839.88
2024-02-19T10:20:45.936Z,100839.25
2024-02-19T10:23:13.754Z,100836.97
2024-02-19T10:25:41.933Z,100841.53
2024-02-19T10:28:10.334Z,100836.56
2024-02-19T10:30:38.272Z,100835.69
2024-02-19T10:33:06.312Z,100829.69
2024-02-19T10:35:35.622Z,100828.66
2024-02-19T10:38:03.474Z,100822.84
2024-02-19T10:40:31.308Z,100812.44
2024-02-19T10:42:59.227Z,100814.50
2024-02-19T10:45:27.164Z,100817.44
2024-02-19T10:47:55.236Z,100812.22
2024-02-19T10:50:23.362Z,100813.28
2024-02-19T10:52:53.475Z,100805.38
2024-02-19T10:55:32.565Z,100803.28
2024-02-19T10:58:13.984Z,100797.06
2024-02-19T11:00:41.905Z,100792.69
2024-02-19T11:03:10.027Z,100784.00
2024-02-19T11:05:39.901Z,100785.00
2024-02-19T11:08:17.569Z,100773.56
2024-02-19T11:10:45.838Z,100770.88
2024-02-19T11:13:15.247Z,100765.47
2024-02-19T11:15:43.665Z,100764.22
2024-02-19T11:18:12.532Z,100769.03
2024-02-19T11:20:40.465Z,100752.63
2024-02-19T11:23:09.754Z,100754.06
2024-02-19T11:25:37.624Z,100745.56
2024-02-19T11:28:05.988Z,100747.22
2024-02-19T11:30:33.815Z,100746.78
2024-02-19T11:33:02.441Z,100740.38
2024-02-19T11:35:32.714Z,100740.78
2024-02-19T11:38:02.454Z,100742.03
2024-02-19T11:40:33.979Z,100738.09
2024-02-19T11:43:02.392Z,100735.97
2024-02-19T11:45:30.637Z,100731.63
2024-02-19T11:47:58.802Z,100731.00
2024-02-19T11:50:28.548Z,100727.28
2024-02-19T11:52:56.606Z,100723.13
2024-02-19T11:55:25.345Z,100718.97
2024-02-19T11:57:54.682Z,100723.50
2024-02-19T12:00:22.556Z,100721.88
2024-02-19T12:02:52.826Z,100719.34
2024-02-19T12:05:20.938Z,100714.38
2024-02-19T12:07:49.692Z,100723.09
2024-02-19T12:10:17.678Z,100712.72
2024-02-19T12:12:45.590Z,100712.09
2024-02-19T12:15:16.598Z,100721.88
2024-02-19T12:17:44.795Z,100714.78
2024-02-19T12:20:13.151Z,100716.88
2024-02-19T12:22:41.677Z,100719.56
2024-02-19T12:25:10.030Z,100709.00
2024-02-19T12:27:39.811Z,100714.38
2024-02-19T12:30:08.124Z,100713.56
2024-02-19T12:32:37.439Z,100714.38
2024-02-19T12:35:06.874Z,100709.41
2024-02-19T12:37:35.164Z,100713.56
2024-02-19T12:40:03.828Z,100698.81
2024-02-19T12:42:31.694Z,100703.16
2024-02-19T12:44:59.538Z,100705.25
2024-02-19T12:47:27.502Z,100697.34
2024-02-19T12:49:56.886Z,100693.81
2024-02-19T12:52:28.217Z,100691.31
2024-02-19T12:54:56.618Z,100693.19
2024-02-19T12:57:24.506Z,100690.72
2024-02-19T12:59:52.319Z,100685.31
2024-02-19T13:02:20.358Z,100684.47
2024-02-19T13:04:48.849Z,100684.06
2024-02-19T13:07:18.306Z,100673.88
2024-02-19T13:09:46.207Z,100679.91
2024-02-19T13:12:15.274Z,100676.16
2024-02-19T13:14:44.774Z,100671.81
2024-02-19T13:17:16.886Z,100670.75
2024-02-19T13:19:49.783Z,100667.03
2024-02-19T13:22:19.296Z,100663.28
2024-02-19T13:24:47.340Z,100664.31
2024-02-19T13:27:15.254Z,100658.28
2024-02-19T13:29:43.222Z,100662.66
2024-02-19T13:32:11.079Z,100660.19
2024-02-19T13:34:39.246Z,100666.19
2024-02-19T13:37:08.158Z,100668.69
2024-02-19T13:39:37.528Z,100671.19
2024-02-19T13:42:05.609Z,100662.84
2024-02-19T13:44:33.421Z,100664.53
2024-02-19T13:47:01.257Z,100659.97
2024-02-19T13:49:29.230Z,100664.31
2024-02-19T13:51:58.832Z,100652.69
2024-02-19T13:54:26.775Z,100657.06
2024-02-19T13:56:59.491Z,100657.88
2024-02-19T13:59:27.690Z,100651.66
2024-02-19T14:01:55.632Z,100652.25
2024-02-19T14:04:23.668Z,100654.94
2024-02-19T14:06:57.940Z,100653.09
2024-02-19T14:09:25.822Z,100651.22
2024-02-19T14:11:55.344Z,100645.84
2024-02-19T14:14:23.211Z,100651.22
2024-02-19T14:16:51.020Z,100645.84
2024-02-19T14:19:18.992Z,100647.47
2024-02-19T14:22:26.329Z,100643.13
2024-02-19T14:24:54.470Z,100647.72
2024-02-19T14:27:23.764Z,100643.13
2024-02-19T14:29:51.639Z,100651.22
2024-02-19T14:32:21.558Z,100639.81
2024-02-19T14:34:49.707Z,100649.56
2024-02-19T14:37:55.369Z,100644.16
2024-02-19T14:40:23.439Z,100649.56
2024-02-19T14:42:52.786Z,100655.81
2024-02-19T14:45:20.632Z,100651.22
2024-02-19T14:47:48.696Z,100656.63
2024-02-19T14:50:17.279Z,100662.03
2024-02-19T14:56:17.484Z,100652.06
2024-02-19T14:58:46.829Z,100658.28
2024-02-19T15:01:14.869Z,100652.06
2024-02-19T15:03:42.844Z,100658.28
2024-02-19T15:06:10.807Z,100651.44
2024-02-19T15:12:00.738Z,100655.81
2024-02-19T15:14:30.007Z,100657.66
2024-02-19T15:16:57.906Z,100654.94
2024-02-19T15:19:25.868Z,100653.94
2024-02-19T15:21:53.723Z,100656.63
2024-02-19T15:24:22.892Z,100653.31
2024-02-19T15:26:50.733Z,100658.06
2024-02-19T15:29:20.693Z,100662.84
2024-02-19T15:31:49.910Z,100663.28
2024-02-19T15:34:17.875Z,100668.28
2024-02-19T15:36:45.735Z,100670.34
2024-02-19T15:39:15.242Z,100667.00
2024-02-19T15:41:43.176Z,100679.91
2024-02-19T15:44:10.948Z,100675.75
2024-02-19T15:46:39.224Z,100675.13
2024-02-19T15:49:08.653Z,100681.56
2024-02-19T15:51:36.630Z,100687.81
2024-02-19T15:54:04.487Z,100679.91
2024-02-19T15:56:32.319Z,100678.25
2024-02-19T15:59:00.102Z,100677.59
2024-02-19T16:01:28.692Z,100684.03
2024-02-19T16:03:56.665Z,100675.31
2024-02-19T16:06:29.341Z,100680.06
2024-02-19T16:08:57.985Z,100680.28
2024-02-19T16:11:25.918Z,100677.81
2024-02-19T16:13:53.945Z,100680.69
2024-02-19T16:16:21.890Z,100679.88
2024-02-19T16:18:49.946Z,100684.63
2024-02-19T16:21:17.862Z,100695.44
2024-02-19T16:23:48.686Z,100685.69
2024-02-19T16:26:16.509Z,100692.09
2024-02-19T16:28:44.363Z,100692.94
2024-02-19T16:31:13.006Z,100690.25
2024-02-19T16:33:42.392Z,100693.16
2024-02-19T16:36:10.439Z,100700.19
2024-02-19T16:38:39.044Z,100690.44
2024-02-19T16:41:08.489Z,100697.72
2024-02-19T16:43:36.579Z,100703.13
2024-02-19T16:46:04.634Z,100701.25
2024-02-19T16:48:38.010Z,100693.97
2024-02-19T16:51:06.232Z,100700.19
2024-02-19T16:53:54.390Z,100696.47
2024-02-19T16:56:28.050Z,100697.50
2024-02-19T16:58:56.190Z,100705.41
2024-02-19T17:01:24.415Z,100707.06
2024-02-19T17:03:52.478Z,100698.94
2024-02-19T17:06:20.411Z,100702.50
2024-02-19T17:15:53.444Z,100707.28
2024-02-19T17:18:21.354Z,100708.28
2024-02-19T17:20:49.266Z,100710.16
2024-02-19T17:30:27.359Z,100714.09
2024-02-19T17:32:56.617Z,100711.41
2024-02-19T17:35:25.145Z,100714.34
2024-02-19T17:42:02.232Z,100718.03
2024-02-19T17:44:30.156Z,100711.00
2024-02-19T17:46:57.980Z,100715.56
2024-02-19T17:49:27.275Z,100714.75
2024-02-19T17:51:55.214Z,100712.88
2024-02-19T17:55:05.741Z,100712.88
2024-02-19T17:57:33.592Z,100714.53
2024-02-19T18:00:01.398Z,100710.16
2024-02-19T18:02:29.249Z,100715.56
2024-02-19T18:05:01.570Z,100716.41
2024-02-19T18:07:29.546Z,100715.56
2024-02-19T18:13:29.275Z,100713.06
2024-02-19T18:15:57.196Z,100717.63
2024-02-19T18:18:25.194Z,100717.63
2024-02-19T18:20:55.501Z,100714.94
2024-02-19T18:26:55.278Z,100716.81
2024-02-19T18:29:23.097Z,100719.69
2024-02-19T18:31:56.489Z,100711.59
2024-02-19T18:34:25.373Z,100707.25
2024-02-19T18:36:57.755Z,100708.91
2024-02-19T18:50:01.462Z,100702.88
2024-02-19T18:52:32.998Z,100699.34
2024-02-19T18:58:28.759Z,100701.03
2024-02-19T19:00:56.840Z,100701.84
2024-02-19T19:03:27.667Z,100713.47
2024-02-19T19:05:59.696Z,100711.81
2024-02-19T19:15:23.663Z,100717.00
2024-02-19T19:17:52.420Z,100713.47
2024-02-19T19:20:20.542Z,100723.44
2024-02-19T19:22:48.581Z,100727.16
2024-02-19T19:25:16.573Z,100713.66
2024-02-19T19:27:44.439Z,100728.84
2024-02-19T19:30:13.194Z,100722.63
2024-02-19T19:32:42.474Z,100722.81
2024-02-19T19:35:10.568Z,100720.13
2024-02-19T19:37:38.593Z,100722.81
2024-02-19T19:43:28.307Z,100729.25
2024-02-19T19:45:57.378Z,100736.31
2024-02-19T19:48:29.643Z,100736.31
2024-02-19T19:50:58.074Z,100735.47
2024-02-19T20:00:29.406Z,100738.19
2024-02-19T20:02:58.121Z,100739.22
2024-02-19T20:05:27.458Z,100741.06
2024-02-19T20:07:55.476Z,100743.75
2024-02-19T20:10:23.468Z,100736.31
2024-02-19T20:12:51.741Z,100740.88
2024-02-19T20:15:19.647Z,100746.28
2024-02-19T20:17:47.527Z,100749.81
2024-02-19T20:20:15.572Z,100747.09
2024-02-19T20:22:44.924Z,100749.81
2024-02-19T20:25:12.970Z,100745.44
2024-02-19T20:27:40.959Z,100751.66
2024-02-19T20:30:09.656Z,100750.03
2024-02-19T20:32:37.525Z,100746.47
2024-02-19T20:35:05.898Z,100747.50
2024-02-19T20:37:34.310Z,100745.63
2024-02-19T20:40:05.623Z,100746.69
2024-02-19T20:42:33.651Z,100750.22
2024-02-19T20:45:01.507Z,100750.22
2024-02-19T20:47:30.331Z,100748.56
2024-02-19T20:50:01.152Z,100752.28
2024-02-19T20:52:30.091Z,100750.41
2024-02-19T20:54:58.020Z,100749.56
2024-02-19T20:57:27.286Z,100757.66
2024-02-19T20:59:55.064Z,100751.44
2024-02-19T21:02:22.893Z,100754.16
2024-02-19T21:04:50.978Z,100756.03
2024-02-19T21:07:18.900Z,100750.63
2024-02-19T21:09:47.949Z,100747.94
2024-02-19T21:12:15.779Z,100748.75
2024-02-19T21:14:44.985Z,100749.78
2024-02-19T21:17:13.711Z,100744.41
2024-02-19T21:19:41.611Z,100751.44
2024-02-19T21:22:09.592Z,100754.16
2024-02-19T21:24:37.432Z,100747.94
2024-02-19T21:27:05.445Z,100747.09
2024-02-19T21:29:33.271Z,100747.09
2024-02-19T21:32:02.542Z,100746.25
2024-02-19T21:34:30.657Z,100739.19
2024-02-19T21:36:59.289Z,100736.50
2024-02-19T21:40:05.155Z,100734.63
2024-02-19T21:42:35.374Z,100734.84
2024-02-19T21:45:04.866Z,100728.41
2024-02-19T21:47:34.177Z,100731.28
2024-02-19T21:50:07.677Z,100725.91
2024-02-19T21:52:36.081Z,100729.63
2024-02-19T21:58:35.681Z,100733.38
2024-02-19T22:01:03.660Z,100726.13
2024-02-19T22:03:33.229Z,100727.13
2024-02-19T22:06:01.330Z,100726.13
2024-02-19T22:08:29.205Z,100728.19
2024-02-19T22:14:28.102Z,100736.28
2024-02-19T22:16:55.894Z,100728.19
2024-02-19T22:19:25.219Z,100730.88
2024-02-19T22:21:53.687Z,100732.75
2024-02-19T22:31:35.178Z,100730.06
2024-02-19T22:34:03.186Z,100729.00
2024-02-19T22:36:32.469Z,100734.63
2024-02-19T22:42:32.049Z,100749.94
2024-02-19T22:45:00.916Z,100754.53
2024-02-19T22:47:29.111Z,100759.09
2024-02-19T22:49:57.320Z,100760.97
2024-02-19T22:52:26.626Z,100761.78
2024-02-19T23:05:39.953Z,100768.63
2024-02-19T23:08:09.300Z,100774.63
2024-02-19T23:10:37.168Z,100774.88
2024-02-19T23:13:05.794Z,100775.69
2024-02-19T23:15:33.635Z,100771.13
2024-02-19T23:18:03.351Z,100768.41
2024-02-19T23:20:31.382Z,100764.06
2024-02-19T23:22:59.661Z,100773.19
2024-02-19T23:36:42.797Z,100771.34
2024-02-19T23:39:12.071Z,100763.25
2024-02-19T23:45:02.344Z,100771.53
2024-02-19T23:47:30.185Z,100770.69
2024-02-19T23:49:58.017Z,100769.88
2024-02-19T23:52:25.919Z,100763.63
